createdAt,value
2016-09-19T00:00:07.928Z,0
2016-09-19T00:01:07.597Z,0
2016-09-19T00:02:08.222Z,0
2016-09-19T00:03:07.586Z,0
2016-09-19T00:04:07.889Z,0
2016-09-19T00:05:08.193Z,0
2016-09-19T00:06:07.867Z,0
2016-09-19T00:07:07.571Z,0
2016-09-19T00:08:08.162Z,0
2016-09-19T00:09:08.151Z,0
2016-09-19T00:10:07.835Z,0
2016-09-19T00:11:07.844Z,0
2016-09-19T00:12:07.814Z,0
2016-09-19T00:13:07.810Z,0
2016-09-19T00:14:07.490Z,0
2016-09-19T00:15:08.436Z,0
2016-09-19T00:16:07.774Z,0
2016-09-19T00:17:07.779Z,0
2016-09-19T00:18:07.773Z,0
2016-09-19T00:19:07.755Z,0
2016-09-19T00:20:08.053Z,0
2016-09-19T00:21:07.440Z,0
2016-09-19T00:22:07.733Z,0
2016-09-19T00:23:07.773Z,0
2016-09-19T00:24:08.069Z,0
2016-09-19T00:25:07.710Z,0
2016-09-19T00:26:07.374Z,0
2016-09-19T00:27:07.680Z,0
2016-09-19T00:28:07.672Z,0
2016-09-19T00:29:07.347Z,0
2016-09-19T00:30:07.650Z,0
2016-09-19T00:31:07.652Z,0
2016-09-19T00:32:07.313Z,0
2016-09-19T00:33:07.990Z,0
2016-09-19T00:34:07.506Z,0
2016-09-19T00:35:07.618Z,0
2016-09-19T00:36:07.289Z,0
2016-09-19T00:37:07.901Z,0
2016-09-19T00:38:07.885Z,0
2016-09-19T00:39:07.570Z,0
2016-09-19T00:40:07.875Z,0
2016-09-19T00:41:07.573Z,0
2016-09-19T00:42:07.236Z,0
2016-09-19T00:43:07.218Z,0
2016-09-19T00:44:07.205Z,0
2016-09-19T00:45:07.848Z,0
2016-09-19T00:46:07.194Z,0
2016-09-19T00:47:07.196Z,0
2016-09-19T00:48:07.174Z,0
2016-09-19T00:49:07.172Z,0
2016-09-19T00:50:07.162Z,0
2016-09-19T00:51:07.767Z,0
2016-09-19T00:52:07.136Z,0
2016-09-19T00:53:07.475Z,0
2016-09-19T00:54:07.434Z,0
2016-09-19T00:55:07.420Z,0
2016-09-19T00:56:07.734Z,0
2016-09-19T00:57:07.409Z,0
2016-09-19T00:58:07.406Z,0
2016-09-19T00:59:07.079Z,0
2016-09-19T01:00:07.685Z,0
2016-09-19T01:01:07.074Z,0
2016-09-19T01:02:07.363Z,0
2016-09-19T01:03:07.352Z,0
2016-09-19T01:04:07.344Z,0
2016-09-19T01:05:07.330Z,0
2016-09-19T01:06:07.325Z,0
2016-09-19T01:07:07.629Z,0
2016-09-19T01:08:07.617Z,0
2016-09-19T01:09:06.993Z,0
2016-09-19T01:10:06.992Z,0
2016-09-19T01:11:07.905Z,0
2016-09-19T01:12:07.268Z,0
2016-09-19T01:13:06.946Z,0
2016-09-19T01:14:07.554Z,0
2016-09-19T01:15:07.566Z,0
2016-09-19T01:16:06.918Z,0
2016-09-19T01:17:07.225Z,0
2016-09-19T01:18:07.214Z,0
2016-09-19T01:19:07.197Z,0
2016-09-19T01:20:07.198Z,0
2016-09-19T01:21:07.179Z,0
2016-09-19T01:22:07.496Z,0
2016-09-19T01:23:06.851Z,0
2016-09-19T01:24:06.844Z,0
2016-09-19T01:25:07.460Z,0
2016-09-19T01:26:07.763Z,0
2016-09-19T01:27:07.139Z,0
2016-09-19T01:28:06.813Z,0
2016-09-19T01:29:07.119Z,0
2016-09-19T01:30:07.122Z,0
2016-09-19T01:31:06.772Z,0
2016-09-19T01:32:07.396Z,0
2016-09-19T01:33:06.778Z,0
2016-09-19T01:34:06.762Z,0
2016-09-19T01:35:07.388Z,0
2016-09-19T01:36:07.357Z,0
2016-09-19T01:37:06.726Z,0
2016-09-19T01:38:06.711Z,0
2016-09-19T01:39:06.707Z,0
2016-09-19T01:40:07.334Z,0
2016-09-19T01:41:06.684Z,0
2016-09-19T01:42:06.674Z,0
2016-09-19T01:43:07.297Z,0
2016-09-19T01:44:07.597Z,0
2016-09-19T01:45:07.282Z,0
2016-09-19T01:46:06.950Z,0
2016-09-19T01:47:06.944Z,0
2016-09-19T01:48:06.936Z,0
2016-09-19T01:49:06.925Z,0
2016-09-19T01:50:06.600Z,0
2016-09-19T01:51:06.594Z,0
2016-09-19T01:52:06.895Z,0
2016-09-19T01:53:07.208Z,0
2016-09-19T01:54:06.897Z,0
2016-09-19T01:55:06.875Z,0
2016-09-19T01:56:06.548Z,0
2016-09-19T01:57:06.532Z,0
2016-09-19T01:58:07.158Z,0
2016-09-19T01:59:06.828Z,0
2016-09-19T02:00:07.137Z,0
2016-09-19T02:01:07.138Z,0
2016-09-19T02:02:06.807Z,0
2016-09-19T02:03:06.802Z,0
2016-09-19T02:04:06.467Z,0
2016-09-19T02:05:06.477Z,0
2016-09-19T02:06:07.092Z,0
2016-09-19T02:07:07.082Z,0
2016-09-19T02:08:06.749Z,0
2016-09-19T02:09:06.436Z,0
2016-09-19T02:10:06.422Z,0
2016-09-19T02:11:06.410Z,0
2016-09-19T02:12:06.717Z,0
2016-09-19T02:13:06.399Z,0
2016-09-19T02:14:06.780Z,0
2016-09-19T02:15:06.373Z,0
2016-09-19T02:16:06.364Z,0
2016-09-19T02:17:06.664Z,0
2016-09-19T02:18:06.332Z,0
2016-09-19T02:19:06.343Z,0
2016-09-19T02:20:06.649Z,0
2016-09-19T02:21:06.313Z,0
2016-09-19T02:22:06.638Z,0
2016-09-19T02:23:06.292Z,0
2016-09-19T02:24:06.647Z,0
2016-09-19T02:25:06.581Z,0
2016-09-19T02:26:06.266Z,0
2016-09-19T02:27:06.885Z,0
2016-09-19T02:28:06.250Z,0
2016-09-19T02:29:06.553Z,0
2016-09-19T02:30:06.232Z,0
2016-09-19T02:31:06.222Z,0
2016-09-19T02:32:06.831Z,0
2016-09-19T02:33:06.826Z,0
2016-09-19T02:34:07.023Z,0
2016-09-19T02:35:06.197Z,0
2016-09-19T02:36:06.491Z,0
2016-09-19T02:37:06.165Z,0
2016-09-19T02:38:06.773Z,0
2016-09-19T02:39:06.458Z,0
2016-09-19T02:40:06.455Z,0
2016-09-19T02:41:06.749Z,0
2016-09-19T02:42:06.438Z,0
2016-09-19T02:43:06.422Z,0
2016-09-19T02:44:06.101Z,0
2016-09-19T02:45:06.096Z,0
2016-09-19T02:46:06.382Z,0
2016-09-19T02:47:06.376Z,0
2016-09-19T02:48:06.691Z,0
2016-09-19T02:49:06.050Z,0
2016-09-19T02:50:06.359Z,0
2016-09-19T02:51:06.336Z,0
2016-09-19T02:52:06.341Z,0
2016-09-19T02:53:06.322Z,0
2016-09-19T02:54:06.311Z,0
2016-09-19T02:55:06.011Z,0
2016-09-19T02:56:05.987Z,0
2016-09-19T02:57:06.292Z,0
2016-09-19T02:58:05.960Z,0
2016-09-19T02:59:05.961Z,0
2016-09-19T03:00:06.258Z,0
2016-09-19T03:01:06.564Z,0
2016-09-19T03:02:06.241Z,0
2016-09-19T03:03:06.225Z,0
2016-09-19T03:04:06.227Z,0
2016-09-19T03:05:06.222Z,0
2016-09-19T03:06:05.885Z,0
2016-09-19T03:07:05.877Z,0
2016-09-19T03:08:05.862Z,0
2016-09-19T03:09:06.183Z,0
2016-09-19T03:10:06.176Z,0
2016-09-19T03:11:06.773Z,0
2016-09-19T03:12:06.151Z,0
2016-09-19T03:13:06.150Z,0
2016-09-19T03:14:05.830Z,0
2016-09-19T03:15:05.799Z,0
2016-09-19T03:16:06.105Z,0
2016-09-19T03:17:05.787Z,0
2016-09-19T03:18:05.778Z,0
2016-09-19T03:19:05.765Z,0
2016-09-19T03:20:06.063Z,0
2016-09-19T03:21:05.752Z,0
2016-09-19T03:22:05.749Z,0
2016-09-19T03:23:06.074Z,0
2016-09-19T03:24:05.742Z,0
2016-09-19T03:25:06.012Z,0
2016-09-19T03:26:05.717Z,0
2016-09-19T03:27:06.310Z,0
2016-09-19T03:28:06.326Z,0
2016-09-19T03:29:05.985Z,0
2016-09-19T03:30:06.604Z,0
2016-09-19T03:31:06.282Z,0
2016-09-19T03:32:05.962Z,0
2016-09-19T03:33:05.948Z,0
2016-09-19T03:34:05.954Z,0
2016-09-19T03:35:06.254Z,0
2016-09-19T03:36:06.237Z,0
2016-09-19T03:37:06.236Z,0
2016-09-19T03:38:05.898Z,0
2016-09-19T03:39:05.568Z,0
2016-09-19T03:40:05.577Z,0
2016-09-19T03:41:05.564Z,0
2016-09-19T03:42:05.567Z,0
2016-09-19T03:43:05.852Z,0
2016-09-19T03:44:06.154Z,0
2016-09-19T03:45:05.828Z,0
2016-09-19T03:46:05.505Z,0
2016-09-19T03:47:05.806Z,0
2016-09-19T03:48:05.487Z,0
2016-09-19T03:49:05.480Z,0
2016-09-19T03:50:05.490Z,0
2016-09-19T03:51:05.764Z,0
2016-09-19T03:52:05.450Z,0
2016-09-19T03:53:05.756Z,0
2016-09-19T03:54:05.439Z,0
2016-09-19T03:55:06.062Z,0
2016-09-19T03:56:05.415Z,0
2016-09-19T03:57:05.715Z,0
2016-09-19T03:58:05.702Z,0
2016-09-19T03:59:05.696Z,0
2016-09-19T04:00:05.685Z,0
2016-09-19T04:01:05.673Z,0
2016-09-19T04:02:05.353Z,0
2016-09-19T04:03:05.337Z,0
2016-09-19T04:04:05.645Z,0
2016-09-19T04:05:05.317Z,0
2016-09-19T04:06:06.306Z,0
2016-09-19T04:07:05.629Z,0
2016-09-19T04:08:05.652Z,0
2016-09-19T04:09:05.599Z,0
2016-09-19T04:10:05.275Z,0
2016-09-19T04:11:05.268Z,0
2016-09-19T04:12:05.894Z,0
2016-09-19T04:13:05.871Z,0
2016-09-19T04:14:05.867Z,0
2016-09-19T04:15:05.849Z,0
2016-09-19T04:16:05.844Z,0
2016-09-19T04:17:05.830Z,0
2016-09-19T04:18:05.512Z,0
2016-09-19T04:19:05.187Z,0
2016-09-19T04:20:05.498Z,0
2016-09-19T04:21:06.116Z,0
2016-09-19T04:22:05.469Z,0
2016-09-19T04:23:06.112Z,0
2016-09-19T04:24:05.813Z,0
2016-09-19T04:25:05.445Z,0
2016-09-19T04:26:05.126Z,0
2016-09-19T04:27:05.424Z,0
2016-09-19T04:28:05.104Z,0
2016-09-19T04:29:05.084Z,0
2016-09-19T04:30:05.088Z,0
2016-09-19T04:31:05.396Z,0
2016-09-19T04:32:05.417Z,0
2016-09-19T04:33:05.370Z,0
2016-09-19T04:34:05.446Z,0
2016-09-19T04:35:05.035Z,0
2016-09-19T04:36:05.330Z,0
2016-09-19T04:37:05.018Z,0
2016-09-19T04:38:05.325Z,0
2016-09-19T04:39:05.306Z,0
2016-09-19T04:40:05.321Z,0
2016-09-19T04:41:04.976Z,0
2016-09-19T04:42:04.971Z,0
2016-09-19T04:43:05.580Z,0
2016-09-19T04:44:05.599Z,0
2016-09-19T04:45:05.271Z,0
2016-09-19T04:46:04.923Z,0
2016-09-19T04:47:04.935Z,0
2016-09-19T04:48:04.905Z,0
2016-09-19T04:49:05.219Z,0
2016-09-19T04:50:04.891Z,0
2016-09-19T04:51:04.891Z,0
2016-09-19T04:52:05.187Z,0
2016-09-19T04:53:04.863Z,0
2016-09-19T04:54:05.163Z,0
2016-09-19T04:55:05.464Z,0
2016-09-19T04:56:04.831Z,0
2016-09-19T04:57:05.443Z,0
2016-09-19T04:58:05.127Z,0
2016-09-19T04:59:05.116Z,0
2016-09-19T05:00:04.786Z,0
2016-09-19T05:01:05.753Z,0
2016-09-19T05:02:05.103Z,0
2016-09-19T05:03:05.080Z,0
2016-09-19T05:04:05.070Z,0
2016-09-19T05:05:05.063Z,0
2016-09-19T05:06:04.732Z,0
2016-09-19T05:07:04.718Z,0
2016-09-19T05:08:04.714Z,0
2016-09-19T05:09:05.018Z,0
2016-09-19T05:10:04.688Z,0
2016-09-19T05:11:04.701Z,0
2016-09-19T05:12:04.669Z,0
2016-09-19T05:13:04.672Z,0
2016-09-19T05:14:04.651Z,0
2016-09-19T05:15:05.271Z,0
2016-09-19T05:16:04.981Z,0
2016-09-19T05:17:04.632Z,0
2016-09-19T05:18:04.935Z,0
2016-09-19T05:19:04.603Z,0
2016-09-19T05:20:05.220Z,0
2016-09-19T05:21:04.907Z,0
2016-09-19T05:22:05.224Z,0
2016-09-19T05:23:05.216Z,0
2016-09-19T05:24:04.927Z,0
2016-09-19T05:25:05.180Z,0
2016-09-19T05:26:05.477Z,0
2016-09-19T05:27:04.840Z,0
2016-09-19T05:28:05.457Z,0
2016-09-19T05:29:05.146Z,5
2016-09-19T05:30:04.492Z,5
2016-09-19T05:31:04.806Z,5
2016-09-19T05:32:04.470Z,5
2016-09-19T05:33:04.465Z,5
2016-09-19T05:34:04.778Z,5
2016-09-19T05:35:04.763Z,5
2016-09-19T05:36:04.449Z,5
2016-09-19T05:37:04.739Z,5
2016-09-19T05:38:05.052Z,5
2016-09-19T05:39:04.426Z,5
2016-09-19T05:40:05.348Z,5
2016-09-19T05:41:04.701Z,5
2016-09-19T05:42:05.004Z,5
2016-09-19T05:43:04.999Z,10
2016-09-19T05:44:04.669Z,10
2016-09-19T05:45:04.990Z,10
2016-09-19T05:46:04.659Z,10
2016-09-19T05:47:04.655Z,10
2016-09-19T05:48:04.949Z,10
2016-09-19T05:49:04.321Z,10
2016-09-19T05:50:04.616Z,10
2016-09-19T05:51:04.607Z,10
2016-09-19T05:52:04.913Z,10
2016-09-19T05:53:04.601Z,10
2016-09-19T05:54:04.898Z,10
2016-09-19T05:55:04.254Z,10
2016-09-19T05:56:04.566Z,10
2016-09-19T05:57:04.864Z,10
2016-09-19T05:58:04.226Z,10
2016-09-19T05:59:04.227Z,15
2016-09-19T06:00:04.212Z,15
2016-09-19T06:01:04.821Z,15
2016-09-19T06:02:04.497Z,15
2016-09-19T06:03:04.171Z,15
2016-09-19T06:04:04.180Z,15
2016-09-19T06:05:04.150Z,15
2016-09-19T06:06:04.462Z,15
2016-09-19T06:07:04.138Z,20
2016-09-19T06:08:04.127Z,20
2016-09-19T06:09:04.744Z,20
2016-09-19T06:10:04.423Z,20
2016-09-19T06:11:04.780Z,20
2016-09-19T06:12:05.054Z,20
2016-09-19T06:13:04.722Z,25
2016-09-19T06:14:04.385Z,25
2016-09-19T06:15:04.062Z,25
2016-09-19T06:16:04.057Z,25
2016-09-19T06:17:04.361Z,25
2016-09-19T06:18:04.662Z,25
2016-09-19T06:19:04.340Z,25
2016-09-19T06:20:04.010Z,30
2016-09-19T06:21:04.001Z,30
2016-09-19T06:22:03.988Z,30
2016-09-19T06:23:03.988Z,30
2016-09-19T06:24:04.282Z,30
2016-09-19T06:25:04.329Z,35
2016-09-19T06:26:04.268Z,35
2016-09-19T06:27:03.943Z,35
2016-09-19T06:28:04.252Z,35
2016-09-19T06:29:04.545Z,35
2016-09-19T06:30:03.916Z,35
2016-09-19T06:31:04.544Z,35
2016-09-19T06:32:04.227Z,40
2016-09-19T06:33:04.515Z,40
2016-09-19T06:34:04.593Z,40
2016-09-19T06:35:03.871Z,40
2016-09-19T06:36:03.879Z,40
2016-09-19T06:37:04.474Z,40
2016-09-19T06:38:04.152Z,45
2016-09-19T06:39:04.447Z,45
2016-09-19T06:40:04.445Z,45
2016-09-19T06:41:04.115Z,45
2016-09-19T06:42:04.432Z,45
2016-09-19T06:43:04.419Z,45
2016-09-19T06:44:04.107Z,45
2016-09-19T06:45:04.410Z,50
2016-09-19T06:46:04.387Z,50
2016-09-19T06:47:03.758Z,50
2016-09-19T06:48:03.739Z,50
2016-09-19T06:49:03.767Z,50
2016-09-19T06:50:04.037Z,50
2016-09-19T06:51:03.723Z,50
2016-09-19T06:52:04.015Z,50
2016-09-19T06:53:03.702Z,50
2016-09-19T06:54:04.314Z,50
2016-09-19T06:55:03.985Z,50
2016-09-19T06:56:03.991Z,50
2016-09-19T06:57:03.978Z,50
2016-09-19T06:58:04.307Z,50
2016-09-19T06:59:03.949Z,50
2016-09-19T07:00:03.946Z,50
2016-09-19T07:01:03.932Z,50
2016-09-19T07:02:03.631Z,55
2016-09-19T07:03:03.919Z,55
2016-09-19T07:04:03.590Z,55
2016-09-19T07:05:03.582Z,60
2016-09-19T07:06:03.579Z,60
2016-09-19T07:07:03.875Z,65
2016-09-19T07:08:03.866Z,65
2016-09-19T07:09:03.543Z,65
2016-09-19T07:10:03.846Z,70
2016-09-19T07:11:03.527Z,70
2016-09-19T07:12:03.514Z,70
2016-09-19T07:13:03.821Z,75
2016-09-19T07:14:03.492Z,75
2016-09-19T07:15:03.491Z,80
2016-09-19T07:16:03.782Z,80
2016-09-19T07:17:04.096Z,80
2016-09-19T07:18:04.089Z,85
2016-09-19T07:19:04.069Z,85
2016-09-19T07:20:03.763Z,90
2016-09-19T07:21:03.427Z,90
2016-09-19T07:22:04.061Z,95
2016-09-19T07:23:04.351Z,95
2016-09-19T07:24:03.405Z,95
2016-09-19T07:25:03.450Z,95
2016-09-19T07:26:03.384Z,95
2016-09-19T07:27:03.377Z,95
2016-09-19T07:28:03.675Z,95
2016-09-19T07:29:03.357Z,95
2016-09-19T07:30:03.667Z,95
2016-09-19T07:31:03.652Z,95
2016-09-19T07:32:03.644Z,100
2016-09-19T07:33:03.323Z,105
2016-09-19T07:34:03.623Z,105
2016-09-19T07:35:03.618Z,110
2016-09-19T07:36:03.598Z,110
2016-09-19T07:37:03.604Z,115
2016-09-19T07:38:03.591Z,120
2016-09-19T07:39:03.585Z,125
2016-09-19T07:40:03.573Z,130
2016-09-19T07:41:03.903Z,135
2016-09-19T07:42:03.562Z,140
2016-09-19T07:43:03.547Z,150
2016-09-19T07:44:03.544Z,150
2016-09-19T07:45:03.851Z,150
2016-09-19T07:46:03.841Z,160
2016-09-19T07:47:03.507Z,160
2016-09-19T07:48:03.518Z,160
2016-09-19T07:49:03.805Z,165
2016-09-19T07:50:04.113Z,170
2016-09-19T07:51:03.162Z,170
2016-09-19T07:52:03.460Z,180
2016-09-19T07:53:03.462Z,180
2016-09-19T07:54:03.137Z,180
2016-09-19T07:55:03.749Z,180
2016-09-19T07:56:03.437Z,185
2016-09-19T07:57:03.436Z,190
2016-09-19T07:58:03.409Z,190
2016-09-19T07:59:03.099Z,190
2016-09-19T08:00:04.023Z,185
2016-09-19T08:01:03.387Z,165
2016-09-19T08:02:03.068Z,150
2016-09-19T08:03:03.371Z,140
2016-09-19T08:04:03.051Z,130
2016-09-19T08:05:03.350Z,125
2016-09-19T08:06:03.040Z,125
2016-09-19T08:07:03.030Z,340
2016-09-19T08:08:03.332Z,345
2016-09-19T08:09:03.323Z,310
2016-09-19T08:10:03.622Z,145
2016-09-19T08:11:03.617Z,115
2016-09-19T08:12:03.624Z,120
2016-09-19T08:13:02.973Z,120
2016-09-19T08:14:03.287Z,105
2016-09-19T08:15:03.282Z,105
2016-09-19T08:16:02.952Z,110
2016-09-19T08:17:02.937Z,120
2016-09-19T08:18:02.937Z,135
2016-09-19T08:19:03.568Z,105
2016-09-19T08:20:03.872Z,100
2016-09-19T08:21:03.539Z,105
2016-09-19T08:22:03.213Z,100
2016-09-19T08:23:03.534Z,95
2016-09-19T08:24:03.513Z,95
2016-09-19T08:25:03.239Z,95
2016-09-19T08:26:03.184Z,90
2016-09-19T08:27:02.905Z,90
2016-09-19T08:28:03.172Z,90
2016-09-19T08:29:03.466Z,90
2016-09-19T08:30:03.152Z,90
2016-09-19T08:31:03.145Z,90
2016-09-19T08:32:02.820Z,90
2016-09-19T08:33:03.148Z,90
2016-09-19T08:34:03.446Z,90
2016-09-19T08:35:03.312Z,90
2016-09-19T08:36:03.731Z,90
2016-09-19T08:37:03.411Z,90
2016-09-19T08:38:02.777Z,90
2016-09-19T08:39:04.479Z,90
2016-09-19T08:40:02.787Z,90
2016-09-19T08:41:03.363Z,90
2016-09-19T08:42:03.371Z,90
2016-09-19T08:43:03.042Z,90
2016-09-19T08:44:03.040Z,90
2016-09-19T08:45:03.028Z,95
2016-09-19T08:46:03.011Z,100
2016-09-19T08:47:03.324Z,95
2016-09-19T08:48:03.002Z,95
2016-09-19T08:49:02.675Z,95
2016-09-19T08:50:02.983Z,95
2016-09-19T08:51:02.656Z,110
2016-09-19T08:52:03.279Z,95
2016-09-19T08:53:02.956Z,100
2016-09-19T08:54:02.637Z,95
2016-09-19T08:55:02.943Z,95
2016-09-19T08:56:03.241Z,100
2016-09-19T08:57:03.237Z,100
2016-09-19T08:58:02.608Z,105
2016-09-19T08:59:02.912Z,100
2016-09-19T09:00:02.585Z,100
2016-09-19T09:01:02.595Z,100
2016-09-19T09:02:03.586Z,100
2016-09-19T09:03:02.552Z,95
2016-09-19T09:04:03.183Z,100
2016-09-19T09:05:02.536Z,100
2016-09-19T09:06:02.534Z,100
2016-09-19T09:07:03.470Z,100
2016-09-19T09:08:02.836Z,105
2016-09-19T09:09:03.159Z,110
2016-09-19T09:10:02.509Z,95
2016-09-19T09:11:02.491Z,100
2016-09-19T09:12:03.419Z,100
2016-09-19T09:13:02.478Z,100
2016-09-19T09:14:03.094Z,100
2016-09-19T09:15:02.778Z,100
2016-09-19T09:16:02.468Z,100
2016-09-19T09:17:03.067Z,105
2016-09-19T09:18:03.060Z,105
2016-09-19T09:19:03.129Z,110
2016-09-19T09:20:03.051Z,150
2016-09-19T09:21:02.726Z,115
2016-09-19T09:22:02.728Z,105
2016-09-19T09:23:02.712Z,105
2016-09-19T09:24:03.011Z,105
2016-09-19T09:25:02.429Z,105
2016-09-19T09:26:02.372Z,105
2016-09-19T09:27:02.360Z,105
2016-09-19T09:28:02.357Z,105
2016-09-19T09:29:02.333Z,110
2016-09-19T09:30:02.958Z,105
2016-09-19T09:31:02.642Z,110
2016-09-19T09:32:02.625Z,110
2016-09-19T09:33:02.621Z,105
2016-09-19T09:34:02.611Z,110
2016-09-19T09:35:02.605Z,110
2016-09-19T09:36:02.593Z,110
2016-09-19T09:37:02.575Z,110
2016-09-19T09:38:02.265Z,110
2016-09-19T09:39:02.253Z,115
2016-09-19T09:40:02.242Z,130
2016-09-19T09:41:02.556Z,150
2016-09-19T09:42:02.232Z,160
2016-09-19T09:43:02.534Z,180
2016-09-19T09:44:02.515Z,200
2016-09-19T09:45:02.217Z,200
2016-09-19T09:46:02.816Z,195
2016-09-19T09:47:02.813Z,195
2016-09-19T09:48:02.811Z,200
2016-09-19T09:49:02.794Z,205
2016-09-19T09:50:02.474Z,210
2016-09-19T09:51:02.470Z,220
2016-09-19T09:52:02.144Z,225
2016-09-19T09:53:02.136Z,215
2016-09-19T09:54:02.121Z,225
2016-09-19T09:55:02.743Z,240
2016-09-19T09:56:02.131Z,235
2016-09-19T09:57:02.736Z,245
2016-09-19T09:58:03.036Z,220
2016-09-19T09:59:02.714Z,225
2016-09-19T10:00:03.026Z,215
2016-09-19T10:01:02.390Z,210
2016-09-19T10:02:02.384Z,230
2016-09-19T10:03:02.384Z,245
2016-09-19T10:04:02.371Z,230
2016-09-19T10:05:02.994Z,205
2016-09-19T10:06:02.360Z,205
2016-09-19T10:07:02.034Z,200
2016-09-19T10:08:02.655Z,190
2016-09-19T10:09:02.333Z,190
2016-09-19T10:10:02.016Z,185
2016-09-19T10:11:02.622Z,185
2016-09-19T10:12:02.313Z,180
2016-09-19T10:13:02.630Z,180
2016-09-19T10:14:01.990Z,170
2016-09-19T10:15:01.976Z,180
2016-09-19T10:16:02.602Z,185
2016-09-19T10:17:01.976Z,210
2016-09-19T10:18:02.570Z,215
2016-09-19T10:19:01.943Z,215
2016-09-19T10:20:02.257Z,225
2016-09-19T10:21:01.925Z,230
2016-09-19T10:22:02.250Z,255
2016-09-19T10:23:02.229Z,275
2016-09-19T10:24:02.538Z,215
2016-09-19T10:25:02.269Z,210
2016-09-19T10:26:02.520Z,200
2016-09-19T10:27:01.906Z,205
2016-09-19T10:28:02.513Z,215
2016-09-19T10:29:02.503Z,340
2016-09-19T10:30:01.871Z,345
2016-09-19T10:31:02.191Z,280
2016-09-19T10:32:02.796Z,250
2016-09-19T10:33:02.486Z,210
2016-09-19T10:34:02.152Z,315
2016-09-19T10:35:02.038Z,295
2016-09-19T10:36:02.161Z,270
2016-09-19T10:37:02.133Z,310
2016-09-19T10:38:02.765Z,335
2016-09-19T10:39:01.811Z,270
2016-09-19T10:40:01.803Z,290
2016-09-19T10:41:02.124Z,280
2016-09-19T10:42:02.098Z,275
2016-09-19T10:43:02.091Z,260
2016-09-19T10:44:02.087Z,250
2016-09-19T10:45:02.086Z,255
2016-09-19T10:46:01.763Z,275
2016-09-19T10:47:01.753Z,235
2016-09-19T10:48:02.689Z,235
2016-09-19T10:49:02.377Z,300
2016-09-19T10:50:02.359Z,345
2016-09-19T10:51:02.047Z,240
2016-09-19T10:52:02.034Z,265
2016-09-19T10:53:01.716Z,470
2016-09-19T10:54:02.340Z,410
2016-09-19T10:55:02.024Z,305
2016-09-19T10:56:02.035Z,315
2016-09-19T10:57:01.695Z,375
2016-09-19T10:58:02.016Z,550
2016-09-19T10:59:02.001Z,475
2016-09-19T11:00:01.688Z,275
2016-09-19T11:01:02.306Z,255
2016-09-19T11:02:02.000Z,240
2016-09-19T11:03:02.001Z,240
2016-09-19T11:04:01.664Z,280
2016-09-19T11:05:01.655Z,340
2016-09-19T11:06:01.961Z,340
2016-09-19T11:07:01.644Z,390
2016-09-19T11:08:01.639Z,350
2016-09-19T11:09:01.949Z,535
2016-09-19T11:10:01.631Z,345
2016-09-19T11:11:01.621Z,355
2016-09-19T11:12:02.255Z,390
2016-09-19T11:13:01.938Z,375
2016-09-19T11:14:01.610Z,760
2016-09-19T11:15:01.919Z,425
2016-09-19T11:16:01.911Z,415
2016-09-19T11:17:01.605Z,840
2016-09-19T11:18:01.603Z,870
2016-09-19T11:19:01.906Z,335
2016-09-19T11:20:01.896Z,545
2016-09-19T11:21:01.896Z,650
2016-09-19T11:22:01.897Z,345
2016-09-19T11:23:02.187Z,410
2016-09-19T11:24:01.572Z,515
2016-09-19T11:25:01.925Z,470
2016-09-19T11:26:01.871Z,420
2016-09-19T11:27:01.873Z,355
2016-09-19T11:28:01.551Z,375
2016-09-19T11:29:01.862Z,445
2016-09-19T11:30:01.863Z,400
2016-09-19T11:31:01.558Z,375
2016-09-19T11:32:01.847Z,645
2016-09-19T11:33:02.190Z,800
2016-09-19T11:34:01.526Z,815
2016-09-19T11:35:01.528Z,1475
2016-09-19T11:36:02.151Z,705
2016-09-19T11:37:01.509Z,855
2016-09-19T11:38:01.546Z,1680
2016-09-19T11:39:01.829Z,1630
2016-09-19T11:40:01.511Z,1790
2016-09-19T11:41:02.150Z,1810
2016-09-19T11:42:02.134Z,1780
2016-09-19T11:43:01.816Z,1760
2016-09-19T11:44:01.817Z,1885
2016-09-19T11:45:01.502Z,1890
2016-09-19T11:46:01.500Z,1840
2016-09-19T11:47:01.805Z,1865
2016-09-19T11:48:01.812Z,1920
2016-09-19T11:49:01.825Z,1240
2016-09-19T11:50:01.517Z,1805
2016-09-19T11:51:01.825Z,830
2016-09-19T11:52:01.809Z,1075
2016-09-19T11:53:01.494Z,1160
2016-09-19T11:54:02.127Z,1360
2016-09-19T11:55:02.433Z,1520
2016-09-19T11:56:02.124Z,1690
2016-09-19T11:57:01.812Z,1675
2016-09-19T11:58:01.813Z,1545
2016-09-19T11:59:01.816Z,1400
2016-09-19T12:00:01.497Z,1475
2016-09-19T12:01:01.504Z,1380
2016-09-19T12:02:02.163Z,1985
2016-09-19T12:03:01.833Z,1905
2016-09-19T12:04:01.521Z,1845
2016-09-19T12:05:02.768Z,1930
2016-09-19T12:06:02.140Z,1815
2016-09-19T12:07:01.826Z,955
2016-09-19T12:08:02.471Z,1020
2016-09-19T12:09:02.167Z,1130
2016-09-19T12:10:01.521Z,1225
2016-09-19T12:11:01.832Z,1585
2016-09-19T12:12:01.523Z,860
2016-09-19T12:13:01.542Z,1315
2016-09-19T12:14:02.155Z,865
2016-09-19T12:15:01.838Z,860
2016-09-19T12:16:01.533Z,680
2016-09-19T12:17:02.159Z,635
2016-09-19T12:18:01.856Z,645
2016-09-19T12:19:01.542Z,660
2016-09-19T12:20:01.537Z,650
2016-09-19T12:21:01.536Z,755
2016-09-19T12:22:02.181Z,745
2016-09-19T12:23:01.860Z,1875
2016-09-19T12:24:01.546Z,2000
2016-09-19T12:25:01.543Z,895
2016-09-19T12:26:01.543Z,715
2016-09-19T12:27:01.560Z,625
2016-09-19T12:28:01.549Z,1010
2016-09-19T12:29:01.861Z,600
2016-09-19T12:30:01.544Z,1535
2016-09-19T12:31:02.172Z,1435
2016-09-19T12:32:01.872Z,930
2016-09-19T12:33:01.856Z,830
2016-09-19T12:34:01.870Z,1880
2016-09-19T12:35:01.754Z,1335
2016-09-19T12:36:01.864Z,1100
2016-09-19T12:37:01.545Z,795
2016-09-19T12:38:01.864Z,1125
2016-09-19T12:39:01.863Z,635
2016-09-19T12:40:01.550Z,830
2016-09-19T12:41:01.861Z,1055
2016-09-19T12:42:02.182Z,915
2016-09-19T12:43:01.872Z,835
2016-09-19T12:44:01.550Z,570
2016-09-19T12:45:01.546Z,535
2016-09-19T12:46:01.865Z,510
2016-09-19T12:47:01.876Z,465
2016-09-19T12:48:01.936Z,420
2016-09-19T12:49:02.188Z,400
2016-09-19T12:50:01.866Z,400
2016-09-19T12:51:01.563Z,390
2016-09-19T12:52:02.173Z,375
2016-09-19T12:53:02.174Z,370
2016-09-19T12:54:01.553Z,370
2016-09-19T12:55:02.179Z,395
2016-09-19T12:56:02.170Z,430
2016-09-19T12:57:01.548Z,405
2016-09-19T12:58:02.168Z,380
2016-09-19T12:59:01.848Z,375
2016-09-19T13:00:01.545Z,380
2016-09-19T13:01:01.539Z,385
2016-09-19T13:02:01.852Z,405
2016-09-19T13:03:01.839Z,405
2016-09-19T13:04:01.530Z,405
2016-09-19T13:05:01.836Z,405
2016-09-19T13:06:01.869Z,385
2016-09-19T13:07:02.162Z,365
2016-09-19T13:08:01.530Z,365
2016-09-19T13:09:01.512Z,395
2016-09-19T13:10:01.826Z,405
2016-09-19T13:11:01.821Z,495
2016-09-19T13:12:01.819Z,675
2016-09-19T13:13:01.818Z,680
2016-09-19T13:14:02.122Z,945
2016-09-19T13:15:01.804Z,370
2016-09-19T13:16:02.141Z,315
2016-09-19T13:17:01.487Z,300
2016-09-19T13:18:01.481Z,295
2016-09-19T13:19:02.115Z,285
2016-09-19T13:20:01.785Z,280
2016-09-19T13:21:01.807Z,265
2016-09-19T13:22:01.784Z,250
2016-09-19T13:23:02.093Z,235
2016-09-19T13:24:01.775Z,215
2016-09-19T13:25:02.137Z,200
2016-09-19T13:26:02.092Z,175
2016-09-19T13:27:01.448Z,150
2016-09-19T13:28:01.456Z,135
2016-09-19T13:29:01.438Z,125
2016-09-19T13:30:01.749Z,115
2016-09-19T13:31:02.051Z,110
2016-09-19T13:32:02.360Z,110
2016-09-19T13:33:01.755Z,105
2016-09-19T13:34:01.424Z,105
2016-09-19T13:35:01.727Z,105
2016-09-19T13:36:01.717Z,105
2016-09-19T13:37:02.339Z,105
2016-09-19T13:38:01.711Z,105
2016-09-19T13:39:01.715Z,110
2016-09-19T13:40:01.391Z,115
2016-09-19T13:41:01.379Z,120
2016-09-19T13:42:01.384Z,125
2016-09-19T13:43:01.705Z,135
2016-09-19T13:44:02.002Z,140
2016-09-19T13:45:01.680Z,145
2016-09-19T13:46:01.670Z,145
2016-09-19T13:47:01.354Z,140
2016-09-19T13:48:01.984Z,140
2016-09-19T13:49:01.340Z,135
2016-09-19T13:50:01.344Z,135
2016-09-19T13:51:01.333Z,135
2016-09-19T13:52:01.329Z,135
2016-09-19T13:53:01.323Z,140
2016-09-19T13:54:01.944Z,145
2016-09-19T13:55:01.625Z,150
2016-09-19T13:56:01.309Z,150
2016-09-19T13:57:01.615Z,155
2016-09-19T13:58:01.607Z,155
2016-09-19T13:59:01.302Z,155
2016-09-19T14:00:01.300Z,160
2016-09-19T14:01:01.605Z,165
2016-09-19T14:02:01.287Z,165
2016-09-19T14:03:01.273Z,170
2016-09-19T14:04:01.263Z,180
2016-09-19T14:05:01.577Z,185
2016-09-19T14:06:01.571Z,190
2016-09-19T14:07:01.251Z,195
2016-09-19T14:08:01.251Z,195
2016-09-19T14:09:01.240Z,200
2016-09-19T14:10:01.550Z,205
2016-09-19T14:11:01.553Z,210
2016-09-19T14:12:01.536Z,220
2016-09-19T14:13:02.165Z,230